Time;durP1;ratioP1;P1;durP2;ratioP2;P2;SDS_P1;SDS_P2;PMS_P1;PMS_P2;Temp;Humidity;BMP_temperature;BMP_pressure;BME280_temperature;BME280_humidity;BME280_pressure;Samples;Min_cycle;Max_cycle;Signal;HPM_P1;HPM_P2
2022/07/28 00:00:09;;;;;;;8.05;6.43;;;17.50;99.90;;;;;;5071623;28;20063;-65
2022/07/28 00:02:37;;;;;;;7.38;5.88;;;17.50;99.90;;;;;;5067904;28;20102;-65
2022/07/28 00:05:05;;;;;;;7.82;6.15;;;17.40;99.90;;;;;;5056650;28;20487;-64
2022/07/28 00:07:33;;;;;;;7.97;6.63;;;17.40;99.90;;;;;;5074429;28;20041;-64
2022/07/28 00:10:01;;;;;;;7.00;6.40;;;17.40;99.90;;;;;;5067187;28;20548;-64
2022/07/28 00:12:28;;;;;;;8.10;6.05;;;17.30;99.90;;;;;;5078407;28;20134;-65
2022/07/28 00:14:55;;;;;;;6.80;6.10;;;17.30;99.90;;;;;;5070252;28;20533;-66
2022/07/28 00:17:22;;;;;;;8.95;6.20;;;17.20;99.90;;;;;;5076031;28;20377;-65
2022/07/28 00:19:50;;;;;;;9.68;6.13;;;17.20;99.90;;;;;;5080830;28;20525;-65
2022/07/28 00:22:18;;;;;;;7.00;5.93;;;17.20;99.90;;;;;;5078465;28;20130;-67
2022/07/28 00:24:45;;;;;;;9.30;6.00;;;17.10;99.90;;;;;;5085450;28;20044;-65
2022/07/28 00:27:16;;;;;;;7.13;5.68;;;17.10;99.90;;;;;;5079792;28;20118;-65
2022/07/28 00:29:45;;;;;;;9.13;6.53;;;17.10;99.90;;;;;;5086281;28;20456;-65
2022/07/28 00:32:20;;;;;;;7.45;6.03;;;17.10;99.90;;;;;;5074471;28;20562;-65
2022/07/28 00:34:47;;;;;;;9.05;6.07;;;17.00;99.90;;;;;;5070831;28;20033;-66
2022/07/28 00:37:19;;;;;;;8.52;6.03;;;17.00;99.90;;;;;;5080445;28;20089;-65
2022/07/28 00:39:47;;;;;;;7.38;6.18;;;17.00;99.90;;;;;;5076569;28;20432;-66
2022/07/28 00:42:18;;;;;;;7.55;5.90;;;17.00;99.90;;;;;;5059055;28;20041;-65
2022/07/28 00:44:46;;;;;;;10.20;6.40;;;17.00;99.90;;;;;;5064875;28;20036;-65
2022/07/28 00:47:14;;;;;;;9.20;6.30;;;17.00;99.90;;;;;;5057529;28;20462;-65
2022/07/28 00:49:43;;;;;;;9.95;6.10;;;17.00;99.90;;;;;;5063139;28;20106;-65
2022/07/28 00:52:11;;;;;;;7.07;6.05;;;17.00;99.90;;;;;;5067613;28;20044;-65
2022/07/28 00:54:39;;;;;;;7.88;5.90;;;17.00;99.90;;;;;;5066087;28;20063;-65
2022/07/28 00:57:07;;;;;;;8.60;6.13;;;17.00;99.90;;;;;;5067881;28;20041;-65
2022/07/28 00:59:34;;;;;;;10.52;6.28;;;17.00;99.90;;;;;;5071847;28;20040;-65
2022/07/28 01:02:02;;;;;;;6.80;6.10;;;17.00;99.90;;;;;;5079256;28;20051;-66
2022/07/28 01:04:30;;;;;;;10.13;6.15;;;17.00;99.90;;;;;;5050759;28;20099;-66
2022/07/28 01:07:24;;;;;;;7.20;6.00;;;17.00;99.90;;;;;;5071254;28;20490;-65
2022/07/28 01:10:33;;;;;;;6.82;6.13;;;17.00;99.90;;;;;;5069191;28;20055;-65
2022/07/28 01:13:32;;;;;;;8.68;6.32;;;17.00;99.90;;;;;;5070386;28;20056;-66
2022/07/28 01:16:04;;;;;;;7.30;6.47;;;17.10;99.90;;;;;;5069255;28;20039;-68
2022/07/28 01:18:41;;;;;;;6.75;6.15;;;17.10;99.90;;;;;;5082880;28;20045;-65
2022/07/28 01:21:14;;;;;;;7.03;6.32;;;17.10;99.90;;;;;;5085623;28;20032;-65
2022/07/28 01:23:57;;;;;;;6.60;5.90;;;17.10;99.90;;;;;;5085430;28;20109;-65
2022/07/28 01:26:47;;;;;;;8.90;6.22;;;17.10;99.90;;;;;;5087092;28;20393;-65
2022/07/28 01:29:33;;;;;;;7.30;6.35;;;17.10;99.90;;;;;;5053857;28;20058;-65
2022/07/28 01:32:15;;;;;;;7.80;6.07;;;17.10;99.90;;;;;;5079425;28;20084;-65
2022/07/28 01:35:14;;;;;;;8.15;6.10;;;17.10;99.90;;;;;;5081211;28;20061;-65
2022/07/28 01:37:50;;;;;;;6.80;5.88;;;17.20;99.90;;;;;;5072031;28;20490;-65
2022/07/28 01:40:24;;;;;;;7.90;6.15;;;17.30;99.90;;;;;;5085365;28;20091;-65
2022/07/28 01:42:55;;;;;;;6.93;6.07;;;17.40;99.90;;;;;;5081489;28;20123;-67
2022/07/28 01:45:24;;;;;;;10.57;6.45;;;17.40;99.90;;;;;;5085958;28;20044;-65
2022/07/28 01:47:55;;;;;;;7.43;6.07;;;17.50;99.90;;;;;;5076113;28;20075;-65
2022/07/28 01:50:25;;;;;;;7.68;6.28;;;17.50;99.90;;;;;;5069573;28;20135;-65
2022/07/28 01:52:54;;;;;;;9.95;6.22;;;17.50;99.90;;;;;;5077680;28;20040;-65
2022/07/28 01:55:23;;;;;;;7.38;6.00;;;17.50;99.90;;;;;;5071754;28;20123;-65
2022/07/28 01:57:54;;;;;;;7.80;5.88;;;17.60;99.90;;;;;;5086000;28;20063;-65
2022/07/28 02:00:22;;;;;;;6.60;6.00;;;17.60;99.90;;;;;;5078105;28;20111;-65
2022/07/28 02:02:51;;;;;;;6.70;5.97;;;17.60;99.90;;;;;;5070786;28;20062;-66
2022/07/28 02:05:22;;;;;;;6.70;6.05;;;17.60;99.90;;;;;;5062157;28;20044;-67
2022/07/28 02:07:50;;;;;;;8.25;5.97;;;17.60;99.90;;;;;;5078070;28;20430;-64
2022/07/28 02:10:20;;;;;;;8.05;5.88;;;17.50;99.90;;;;;;5081608;28;20151;-64
2022/07/28 02:12:49;;;;;;;9.30;6.28;;;17.50;99.90;;;;;;5078348;28;20548;-65
2022/07/28 02:15:19;;;;;;;6.53;5.80;;;17.40;99.90;;;;;;5077432;28;20133;-65
2022/07/28 02:17:48;;;;;;;7.38;6.38;;;17.30;99.90;;;;;;5081428;28;20075;-65
2022/07/28 02:20:17;;;;;;;8.68;6.45;;;17.30;99.90;;;;;;5063814;28;20052;-65
2022/07/28 02:22:46;;;;;;;7.97;6.18;;;17.20;99.90;;;;;;5067995;28;20562;-65
2022/07/28 02:25:19;;;;;;;9.18;6.10;;;17.20;99.90;;;;;;5072273;28;20513;-65
2022/07/28 02:28:06;;;;;;;7.97;6.38;;;17.10;99.90;;;;;;5066291;28;20170;-66
2022/07/28 02:30:42;;;;;;;6.80;6.10;;;17.00;99.90;;;;;;5077570;28;20129;-65
2022/07/28 02:33:19;;;;;;;8.63;6.68;;;17.00;99.90;;;;;;5069123;28;20036;-65
2022/07/28 02:36:12;;;;;;;8.43;6.53;;;17.00;99.90;;;;;;5063461;28;20507;-64
2022/07/28 02:38:45;;;;;;;7.50;6.53;;;16.90;99.90;;;;;;5073697;28;20101;-64
2022/07/28 02:41:27;;;;;;;10.50;6.85;;;16.90;99.90;;;;;;5060502;28;20072;-64
2022/07/28 02:43:59;;;;;;;7.50;6.28;;;16.90;99.90;;;;;;5072314;28;20382;-65
2022/07/28 02:46:39;;;;;;;14.07;6.57;;;16.90;99.90;;;;;;5062095;28;20073;-65
2022/07/28 02:49:12;;;;;;;8.15;6.60;;;16.80;99.90;;;;;;5070687;28;20036;-64
2022/07/28 02:51:42;;;;;;;8.50;6.38;;;16.80;99.90;;;;;;5077598;28;20063;-66
2022/07/28 02:54:11;;;;;;;7.05;6.20;;;16.80;99.90;;;;;;5084654;28;20048;-65
2022/07/28 02:56:40;;;;;;;6.90;6.30;;;16.70;99.90;;;;;;5079494;28;20037;-64
2022/07/28 02:59:20;;;;;;;8.38;6.53;;;16.80;99.90;;;;;;5086808;28;20036;-64
2022/07/28 03:01:49;;;;;;;8.88;6.82;;;16.80;99.90;;;;;;5080114;28;20452;-64
2022/07/28 03:04:55;;;;;;;9.32;6.50;;;16.70;99.90;;;;;;5068535;28;20036;-64
2022/07/28 03:07:05;;;;;;;7.80;6.97;;;16.70;99.90;;;;;;5050239;28;20124;-65
2022/07/28 03:09:39;;;;;;;7.70;7.00;;;16.70;99.90;;;;;;5057426;28;20045;-65
2022/07/28 03:12:07;;;;;;;7.57;6.88;;;16.70;99.90;;;;;;5074069;28;20068;-65
2022/07/28 03:14:35;;;;;;;8.43;7.30;;;16.60;99.90;;;;;;5069445;28;20109;-65
2022/07/28 03:17:03;;;;;;;7.40;6.80;;;16.60;99.90;;;;;;5079502;28;20155;-65
2022/07/28 03:19:32;;;;;;;7.82;7.07;;;16.60;99.90;;;;;;5082729;28;20139;-66
2022/07/28 03:21:59;;;;;;;8.43;6.68;;;16.60;99.90;;;;;;5071981;28;20520;-65
2022/07/28 03:24:31;;;;;;;7.95;7.03;;;16.60;99.90;;;;;;5076008;28;20097;-65
2022/07/28 03:27:05;;;;;;;12.95;6.90;;;16.60;99.90;;;;;;5071528;28;20040;-65
2022/07/28 03:29:34;;;;;;;7.50;6.80;;;16.60;99.90;;;;;;5056855;28;20135;-65
2022/07/28 03:32:01;;;;;;;7.13;6.40;;;16.50;99.90;;;;;;5067602;28;20167;-65
2022/07/28 03:34:29;;;;;;;7.65;6.30;;;16.60;99.90;;;;;;5065354;28;20139;-65
2022/07/28 03:37:02;;;;;;;9.95;6.85;;;16.60;99.90;;;;;;5084983;28;20193;-65
2022/07/28 03:39:36;;;;;;;7.40;6.70;;;16.60;99.90;;;;;;5080921;28;20479;-65
2022/07/28 03:42:04;;;;;;;9.10;7.00;;;16.60;99.90;;;;;;5067335;28;20072;-65
2022/07/28 03:44:32;;;;;;;7.72;7.00;;;16.50;99.90;;;;;;5067402;28;20472;-65
2022/07/28 03:47:00;;;;;;;8.02;7.22;;;16.50;99.90;;;;;;5069499;28;20470;-64
2022/07/28 03:49:27;;;;;;;8.55;7.70;;;16.40;99.90;;;;;;5066367;28;20040;-65
2022/07/28 03:51:54;;;;;;;9.45;6.90;;;16.30;99.90;;;;;;5072515;28;20508;-65
2022/07/28 03:54:22;;;;;;;8.10;7.18;;;16.30;99.90;;;;;;5064620;28;20080;-65
2022/07/28 03:56:49;;;;;;;7.78;6.97;;;16.30;99.90;;;;;;5073234;28;20074;-65
2022/07/28 03:59:18;;;;;;;8.02;6.95;;;16.30;99.90;;;;;;5078686;28;20036;-65
2022/07/28 04:01:46;;;;;;;8.13;6.63;;;16.30;99.90;;;;;;5077176;28;20499;-66
2022/07/28 04:04:13;;;;;;;8.75;7.28;;;16.40;99.90;;;;;;5059620;28;20059;-64
2022/07/28 04:06:41;;;;;;;7.93;6.53;;;16.40;99.90;;;;;;5064299;28;20076;-65
2022/07/28 04:09:09;;;;;;;7.88;6.85;;;16.40;99.90;;;;;;5066542;28;20052;-65
2022/07/28 04:11:36;;;;;;;7.47;6.72;;;16.40;99.90;;;;;;5063580;28;20049;-65
2022/07/28 04:14:04;;;;;;;8.38;6.85;;;16.40;99.90;;;;;;5072527;28;20036;-65
2022/07/28 04:16:31;;;;;;;9.13;7.18;;;16.30;99.90;;;;;;5074913;28;20462;-66
2022/07/28 04:18:58;;;;;;;9.05;7.43;;;16.30;99.90;;;;;;5070903;28;20032;-65
2022/07/28 04:21:26;;;;;;;7.50;6.78;;;16.30;99.90;;;;;;5081161;28;20127;-64
2022/07/28 04:23:53;;;;;;;11.85;7.97;;;16.30;99.90;;;;;;5080271;28;20127;-65
2022/07/28 04:26:27;;;;;;;9.27;7.40;;;16.30;99.90;;;;;;5068846;28;20372;-65
2022/07/28 04:28:55;;;;;;;8.55;6.60;;;16.40;99.90;;;;;;5067577;28;20538;-65
2022/07/28 04:31:22;;;;;;;8.60;7.18;;;16.50;99.90;;;;;;5060994;28;20049;-65
2022/07/28 04:33:49;;;;;;;8.57;6.75;;;16.60;99.90;;;;;;5069428;28;20040;-65
2022/07/28 04:36:17;;;;;;;7.95;6.35;;;16.70;99.90;;;;;;5077045;28;20515;-65
2022/07/28 04:38:44;;;;;;;7.35;6.53;;;16.80;99.90;;;;;;5088154;28;20506;-65
2022/07/28 04:41:12;;;;;;;8.18;6.60;;;17.00;99.90;;;;;;5079007;28;20411;-64
2022/07/28 04:43:40;;;;;;;7.20;6.50;;;17.20;99.90;;;;;;5086490;28;20366;-64
2022/07/28 04:46:07;;;;;;;8.93;6.28;;;17.20;99.90;;;;;;5076391;28;20543;-64
2022/07/28 04:48:40;;;;;;;7.40;6.47;;;17.40;99.90;;;;;;5070089;28;20052;-64
2022/07/28 04:51:08;;;;;;;9.68;6.50;;;17.50;99.90;;;;;;5075436;28;20519;-65
2022/07/28 04:53:36;;;;;;;7.38;6.72;;;17.60;99.90;;;;;;5086016;28;20533;-65
2022/07/28 04:56:03;;;;;;;7.80;7.03;;;17.70;99.90;;;;;;5088812;28;20047;-65
2022/07/28 04:58:31;;;;;;;8.80;7.20;;;17.80;99.90;;;;;;5082794;28;20518;-65
2022/07/28 05:00:59;;;;;;;9.88;6.95;;;17.80;99.90;;;;;;5077786;28;20045;-65
2022/07/28 05:03:26;;;;;;;8.45;7.25;;;17.80;99.90;;;;;;5060205;28;20453;-66
2022/07/28 05:06:00;;;;;;;13.52;7.10;;;17.70;99.90;;;;;;5071401;28;20075;-65
2022/07/28 05:08:27;;;;;;;7.55;6.72;;;17.80;99.90;;;;;;5068156;28;20049;-66
2022/07/28 05:10:55;;;;;;;10.93;7.00;;;17.80;99.90;;;;;;5075444;28;20505;-66
2022/07/28 05:13:23;;;;;;;9.73;7.28;;;17.70;99.90;;;;;;5075143;28;20052;-66
2022/07/28 05:15:53;;;;;;;10.27;7.40;;;17.80;99.90;;;;;;5066299;28;20592;-66
2022/07/28 05:18:21;;;;;;;11.25;6.82;;;17.80;99.90;;;;;;5081167;28;20486;-66
2022/07/28 05:20:48;;;;;;;8.40;6.85;;;17.80;99.90;;;;;;5074370;28;20533;-66
2022/07/28 05:23:16;;;;;;;10.98;6.45;;;17.90;99.90;;;;;;5086491;28;20065;-65
2022/07/28 05:25:43;;;;;;;8.68;6.82;;;18.00;99.90;;;;;;5084742;28;20685;-65
2022/07/28 05:28:11;;;;;;;7.43;6.63;;;18.10;99.90;;;;;;5077887;28;20131;-65
2022/07/28 05:30:38;;;;;;;7.15;6.45;;;18.20;99.90;;;;;;5083316;28;20044;-66
2022/07/28 05:33:05;;;;;;;9.43;6.57;;;18.20;99.90;;;;;;5063450;28;20086;-65
2022/07/28 05:35:33;;;;;;;8.35;6.38;;;18.40;99.90;;;;;;5063116;28;20055;-65
2022/07/28 05:38:00;;;;;;;13.07;6.20;;;18.40;99.90;;;;;;5079450;28;20486;-64
2022/07/28 05:40:28;;;;;;;7.07;6.38;;;18.50;99.90;;;;;;5077032;28;20123;-65
2022/07/28 05:42:56;;;;;;;8.18;6.40;;;18.60;99.90;;;;;;5075442;28;20041;-66
2022/07/28 05:45:23;;;;;;;13.05;6.82;;;18.70;99.90;;;;;;5080225;28;20071;-66
2022/07/28 05:47:52;;;;;;;12.63;6.70;;;18.70;99.90;;;;;;5075244;28;20537;-67
2022/07/28 05:50:21;;;;;;;7.65;6.85;;;18.90;99.90;;;;;;5062304;28;20356;-65
2022/07/28 05:52:50;;;;;;;10.38;6.60;;;18.90;99.90;;;;;;5081807;28;20036;-65
2022/07/28 05:55:17;;;;;;;8.38;6.70;;;19.00;99.90;;;;;;5086771;28;20042;-67
2022/07/28 05:57:45;;;;;;;7.60;6.82;;;19.00;99.90;;;;;;5088404;28;20059;-65
2022/07/28 06:00:15;;;;;;;8.50;7.05;;;19.10;99.90;;;;;;5086456;28;20529;-65
2022/07/28 06:02:45;;;;;;;9.82;6.63;;;19.20;99.90;;;;;;5080210;28;20296;-64
2022/07/28 06:05:15;;;;;;;9.73;7.30;;;19.20;99.90;;;;;;5058041;28;20131;-65
2022/07/28 06:07:47;;;;;;;11.63;6.93;;;19.20;99.90;;;;;;5069384;28;20059;-66
2022/07/28 06:10:18;;;;;;;8.55;6.95;;;19.20;99.90;;;;;;5059639;28;20061;-66
2022/07/28 06:12:51;;;;;;;10.95;7.18;;;19.10;99.90;;;;;;5074717;28;20530;-66
2022/07/28 06:15:24;;;;;;;12.73;7.10;;;19.10;99.90;;;;;;5079304;28;20127;-66
2022/07/28 06:17:54;;;;;;;8.93;7.53;;;19.10;99.90;;;;;;5080460;28;20048;-65
2022/07/28 06:20:23;;;;;;;9.80;7.35;;;19.00;99.90;;;;;;5080623;28;20552;-65
2022/07/28 06:22:53;;;;;;;10.25;7.70;;;19.00;99.90;;;;;;5087282;28;20485;-66
2022/07/28 06:25:26;;;;;;;10.82;7.93;;;18.90;99.90;;;;;;5077859;28;20162;-66
2022/07/28 06:28:01;;;;;;;12.43;7.65;;;19.00;99.90;;;;;;5065712;28;20048;-66
2022/07/28 06:30:29;;;;;;;14.65;9.07;;;19.00;99.90;;;;;;5074503;28;20519;-65
2022/07/28 06:32:58;;;;;;;14.35;7.43;;;19.20;99.90;;;;;;5068481;28;20048;-66
2022/07/28 06:35:25;;;;;;;9.27;7.40;;;19.30;99.90;;;;;;5067703;28;20040;-65
2022/07/28 06:37:53;;;;;;;9.73;7.40;;;19.50;99.90;;;;;;5074782;28;20468;-66
2022/07/28 06:40:21;;;;;;;13.15;8.10;;;19.70;99.90;;;;;;5079672;28;20044;-64
2022/07/28 06:42:49;;;;;;;8.30;7.45;;;19.80;99.90;;;;;;5071422;28;20483;-65
2022/07/28 06:45:18;;;;;;;8.35;7.47;;;20.00;99.90;;;;;;5079038;28;20123;-65
2022/07/28 06:47:51;;;;;;;9.60;7.38;;;20.20;99.90;;;;;;5071174;28;20524;-67
2022/07/28 06:50:20;;;;;;;9.18;7.82;;;20.30;99.90;;;;;;5060967;28;20498;-65
2022/07/28 06:52:57;;;;;;;10.13;8.02;;;20.40;99.90;;;;;;5070281;28;20136;-65
2022/07/28 06:55:25;;;;;;;12.02;7.95;;;20.50;99.90;;;;;;5061925;28;20048;-67
2022/07/28 06:58:02;;;;;;;11.13;7.68;;;20.70;99.90;;;;;;5072385;28;20348;-68
2022/07/28 07:00:30;;;;;;;12.85;8.18;;;20.90;99.90;;;;;;5074493;28;20573;-64
2022/07/28 07:02:57;;;;;;;10.82;7.47;;;21.10;99.90;;;;;;5083314;28;20429;-64
2022/07/28 07:05:30;;;;;;;9.73;7.85;;;21.40;99.90;;;;;;5054178;28;20355;-64
2022/07/28 07:07:59;;;;;;;8.38;7.30;;;21.70;99.90;;;;;;5080333;28;20048;-65
2022/07/28 07:10:26;;;;;;;13.68;8.15;;;21.90;99.90;;;;;;5064519;28;20087;-65
2022/07/28 07:12:53;;;;;;;9.60;8.13;;;22.10;99.90;;;;;;5060574;28;20477;-65
2022/07/28 07:15:21;;;;;;;13.10;8.50;;;22.20;99.90;;;;;;5066975;28;20098;-65
2022/07/28 07:17:48;;;;;;;10.73;8.02;;;22.40;99.90;;;;;;5070042;28;20114;-65
2022/07/28 07:20:15;;;;;;;12.57;7.70;;;22.50;99.90;;;;;;5067523;28;20167;-65
2022/07/28 07:22:45;;;;;;;15.20;8.65;;;22.50;99.90;;;;;;5075685;28;20040;-65
2022/07/28 07:25:15;;;;;;;12.18;9.73;;;22.50;99.90;;;;;;5078761;28;20028;-67
2022/07/28 07:27:43;;;;;;;12.88;9.00;;;22.50;99.90;;;;;;5069963;28;20428;-65
2022/07/28 07:30:12;;;;;;;11.65;9.10;;;22.50;99.90;;;;;;5071026;28;20044;-65
2022/07/28 07:32:40;;;;;;;11.57;8.35;;;22.40;99.90;;;;;;5050021;28;20442;-64
2022/07/28 07:35:08;;;;;;;11.88;8.73;;;22.60;99.90;;;;;;5076249;28;20525;-65
2022/07/28 07:37:35;;;;;;;9.98;7.88;;;22.60;99.90;;;;;;5064613;28;20044;-64
2022/07/28 07:40:05;;;;;;;9.48;7.63;;;22.60;99.90;;;;;;5067779;28;20048;-65
2022/07/28 07:42:32;;;;;;;16.90;8.68;;;22.60;99.90;;;;;;5068225;28;20505;-64
2022/07/28 07:45:00;;;;;;;10.18;8.18;;;22.60;99.90;;;;;;5081365;28;20032;-65
2022/07/28 07:47:27;;;;;;;11.07;8.57;;;22.60;99.90;;;;;;5086417;28;20165;-65
2022/07/28 07:49:55;;;;;;;11.43;7.95;;;22.60;99.90;;;;;;5079450;28;20131;-65
2022/07/28 07:52:22;;;;;;;9.57;7.82;;;22.60;99.90;;;;;;5078533;28;20123;-65
2022/07/28 07:54:49;;;;;;;11.70;7.88;;;22.60;99.90;;;;;;5067520;28;20067;-65
2022/07/28 07:57:17;;;;;;;9.43;8.38;;;22.60;99.90;;;;;;5079943;28;20434;-65
2022/07/28 07:59:44;;;;;;;10.60;8.18;;;22.40;99.90;;;;;;5068479;28;20041;-67
2022/07/28 08:02:11;;;;;;;9.57;7.95;;;22.30;99.90;;;;;;5069585;28;20048;-65
2022/07/28 08:04:38;;;;;;;11.18;7.80;;;22.30;99.90;;;;;;5053719;28;20557;-65
2022/07/28 08:07:06;;;;;;;11.18;8.30;;;22.30;99.90;;;;;;5076654;28;20067;-65
2022/07/28 08:09:34;;;;;;;10.55;7.90;;;22.30;99.90;;;;;;5066603;28;20110;-65
2022/07/28 08:12:01;;;;;;;11.55;8.25;;;22.40;99.90;;;;;;5072112;28;20741;-66
2022/07/28 08:14:29;;;;;;;10.75;7.72;;;22.50;99.90;;;;;;5057716;28;20069;-66
2022/07/28 08:16:58;;;;;;;8.90;7.45;;;22.50;99.90;;;;;;5062251;28;20041;-65
2022/07/28 08:19:25;;;;;;;11.35;7.93;;;22.60;99.90;;;;;;5074667;28;20759;-65
2022/07/28 08:21:54;;;;;;;8.90;7.70;;;22.60;99.90;;;;;;5061456;28;20124;-64
2022/07/28 08:24:22;;;;;;;11.02;8.15;;;22.70;99.90;;;;;;5060608;28;20051;-66
2022/07/28 08:27:01;;;;;;;8.73;7.20;;;22.80;99.90;;;;;;5081475;28;20680;-65
2022/07/28 08:29:28;;;;;;;10.43;7.72;;;22.80;99.90;;;;;;5084019;28;20064;-66
2022/07/28 08:31:56;;;;;;;8.70;7.07;;;22.90;99.90;;;;;;5067094;28;20148;-69
2022/07/28 08:34:24;;;;;;;11.60;7.40;;;23.00;99.90;;;;;;5077943;28;20074;-64
2022/07/28 08:37:04;;;;;;;10.27;7.80;;;23.20;99.90;;;;;;5077531;28;20037;-65
2022/07/28 08:39:33;;;;;;;12.93;7.57;;;23.30;99.90;;;;;;5059849;28;20049;-65
2022/07/28 08:42:14;;;;;;;9.68;7.60;;;23.40;99.90;;;;;;5074878;28;20040;-65
2022/07/28 08:45:00;;;;;;;11.17;8.13;;;23.60;99.90;;;;;;5074304;28;20072;-65
2022/07/28 08:47:30;;;;;;;9.55;7.50;;;23.70;99.90;;;;;;5061904;28;20807;-66
2022/07/28 08:50:14;;;;;;;8.98;7.32;;;23.80;99.90;;;;;;5070281;28;20048;-68
2022/07/28 08:52:44;;;;;;;8.02;6.75;;;24.10;99.90;;;;;;5058398;28;20049;-66
2022/07/28 08:55:13;;;;;;;9.68;7.47;;;24.10;99.90;;;;;;5067538;28;20044;-66
2022/07/28 08:57:46;;;;;;;11.32;7.40;;;24.20;99.90;;;;;;5084032;28;20121;-66
2022/07/28 09:00:13;;;;;;;10.13;7.28;;;24.30;99.90;;;;;;5083271;28;20071;-65
2022/07/28 09:02:45;;;;;;;8.85;7.35;;;24.30;99.90;;;;;;5066570;28;20128;-65
2022/07/28 09:05:22;;;;;;;12.02;7.45;;;24.40;99.90;;;;;;5061166;28;20040;-65
2022/07/28 09:07:51;;;;;;;11.73;7.35;;;24.40;99.90;;;;;;5076556;28;20429;-66
2022/07/28 09:10:21;;;;;;;;;;;24.50;99.90;;;;;;5067936;28;20062;-65
2022/07/28 09:12:48;;;;;;;10.13;7.13;;;24.40;99.90;;;;;;5055918;28;19924;-65
2022/07/28 09:15:15;;;;;;;9.55;6.68;;;24.60;99.90;;;;;;5059542;28;20046;-65
2022/07/28 09:17:43;;;;;;;11.68;7.38;;;24.70;99.90;;;;;;5077219;28;20041;-65
2022/07/28 09:20:10;;;;;;;8.15;6.78;;;24.90;99.90;;;;;;5058895;28;20441;-65
2022/07/28 09:22:58;;;;;;;9.32;7.72;;;24.90;99.90;;;;;;5065625;28;20045;-65
2022/07/28 09:25:27;;;;;;;7.72;6.97;;;25.10;99.90;;;;;;5064448;28;20083;-66
2022/07/28 09:27:55;;;;;;;8.25;6.60;;;25.10;99.90;;;;;;5075617;28;20503;-66
2022/07/28 09:30:30;;;;;;;9.57;7.55;;;25.30;99.90;;;;;;5078270;28;20110;-66
2022/07/28 09:33:31;;;;;;;9.23;7.25;;;25.50;99.90;;;;;;5070440;28;20040;-66
2022/07/28 09:36:17;;;;;;;12.23;7.37;;;25.60;99.90;;;;;;5029419;28;20123;-66
2022/07/28 09:38:45;;;;;;;9.05;7.40;;;25.70;99.90;;;;;;5067645;28;20869;-66
2022/07/28 09:41:13;;;;;;;9.65;7.00;;;25.80;99.90;;;;;;5071406;28;20123;-66
2022/07/28 09:43:43;;;;;;;9.27;7.60;;;25.90;99.90;;;;;;5079260;28;20101;-65
2022/07/28 09:46:11;;;;;;;8.82;7.07;;;26.10;99.90;;;;;;5075103;28;20045;-65
2022/07/28 09:48:48;;;;;;;8.23;7.43;;;26.10;99.90;;;;;;5071827;28;20052;-65
2022/07/28 09:51:44;;;;;;;10.35;7.25;;;26.20;99.90;;;;;;5078305;28;20048;-66
2022/07/28 09:54:13;;;;;;;8.30;6.95;;;26.30;99.90;;;;;;5076183;28;20054;-66
2022/07/28 09:56:43;;;;;;;13.70;7.20;;;26.50;99.70;;;;;;5077793;28;20045;-66
2022/07/28 09:59:12;;;;;;;11.60;8.20;;;26.50;99.30;;;;;;5085181;28;20515;-66
2022/07/28 10:01:54;;;;;;;9.68;7.15;;;26.60;99.10;;;;;;5075646;28;20033;-66
2022/07/28 10:04:37;;;;;;;7.82;6.63;;;26.90;98.80;;;;;;5076019;28;20047;-65
2022/07/28 10:07:10;;;;;;;10.77;7.22;;;26.80;97.80;;;;;;5079101;28;20578;-65
2022/07/28 10:09:38;;;;;;;7.95;7.10;;;27.00;97.30;;;;;;5081748;28;20486;-66
2022/07/28 10:12:21;;;;;;;8.15;7.20;;;27.10;96.50;;;;;;5077438;28;20048;-66
2022/07/28 10:14:50;;;;;;;7.78;6.97;;;27.30;95.80;;;;;;5083167;28;20536;-69
2022/07/28 10:17:25;;;;;;;8.52;7.28;;;27.40;95.30;;;;;;5075788;28;20044;-65
2022/07/28 10:19:53;;;;;;;9.52;7.80;;;27.50;95.30;;;;;;5079625;28;20047;-66
2022/07/28 10:22:24;;;;;;;8.45;7.70;;;27.60;95.00;;;;;;5062771;28;20048;-65
2022/07/28 10:24:52;;;;;;;9.15;7.50;;;27.80;94.50;;;;;;5061799;28;20068;-65
2022/07/28 10:27:24;;;;;;;7.82;7.03;;;28.20;93.60;;;;;;5070791;28;20106;-65
2022/07/28 10:29:58;;;;;;;8.52;7.15;;;28.30;92.60;;;;;;5074440;28;20596;-65
2022/07/28 10:32:28;;;;;;;10.52;6.63;;;28.20;92.30;;;;;;5060890;28;20526;-66
2022/07/28 10:35:07;;;;;;;8.40;7.60;;;28.30;91.90;;;;;;5073888;28;20113;-66
2022/07/28 10:37:48;;;;;;;9.10;7.80;;;28.50;91.20;;;;;;5062192;28;20044;-66
2022/07/28 10:40:17;;;;;;;7.90;7.20;;;28.60;91.20;;;;;;5068123;28;20085;-66
2022/07/28 10:42:44;;;;;;;10.77;7.43;;;28.80;90.70;;;;;;5066640;28;20497;-69
2022/07/28 10:45:12;;;;;;;7.57;6.90;;;28.90;90.30;;;;;;5072553;28;20469;-66
2022/07/28 10:47:40;;;;;;;7.47;6.85;;;29.20;89.30;;;;;;5067804;28;20044;-65
2022/07/28 10:50:08;;;;;;;9.68;7.07;;;29.40;87.50;;;;;;5075234;28;20055;-65
2022/07/28 10:52:39;;;;;;;9.65;7.10;;;29.50;87.10;;;;;;5066383;28;20090;-65
2022/07/28 10:55:35;;;;;;;7.63;6.97;;;29.60;86.40;;;;;;5080104;28;20401;-65
2022/07/28 10:58:32;;;;;;;8.57;7.68;;;29.60;85.90;;;;;;5076615;28;20048;-65
2022/07/28 11:00:59;;;;;;;7.63;6.13;;;30.00;84.80;;;;;;5060263;28;20510;-66
2022/07/28 11:03:35;;;;;;;8.63;6.25;;;30.00;83.80;;;;;;5068648;28;20395;-65
2022/07/28 11:06:30;;;;;;;11.32;6.65;;;30.20;82.90;;;;;;5075251;28;20055;-65
2022/07/28 11:09:18;;;;;;;7.32;6.40;;;30.10;82.60;;;;;;5082288;28;20071;-65
2022/07/28 11:12:04;;;;;;;7.88;6.55;;;30.30;82.00;;;;;;5084052;28;20048;-66
2022/07/28 11:14:36;;;;;;;7.82;6.40;;;30.20;81.40;;;;;;5088509;28;20040;-65
2022/07/28 11:17:05;;;;;;;7.80;6.18;;;30.50;80.90;;;;;;5081998;28;20495;-66
2022/07/28 11:19:43;;;;;;;;;;;30.70;79.50;;;;;;5060255;28;20064;-65
2022/07/28 11:22:32;;;;;;;8.85;6.65;;;30.90;78.50;;;;;;5068506;28;19924;-65
2022/07/28 11:25:00;;;;;;;8.48;6.75;;;31.00;77.90;;;;;;5068001;28;20044;-65
2022/07/28 11:27:49;;;;;;;10.05;7.00;;;31.20;77.40;;;;;;5061888;28;20048;-65
2022/07/28 11:30:32;;;;;;;8.07;6.80;;;31.60;76.60;;;;;;5074239;28;20055;-65
2022/07/28 11:33:01;;;;;;;11.05;7.03;;;31.60;76.00;;;;;;5066973;28;20044;-64
2022/07/28 11:35:30;;;;;;;8.95;6.03;;;31.70;75.50;;;;;;5051985;28;20058;-65
2022/07/28 11:38:00;;;;;;;13.57;6.30;;;31.90;74.90;;;;;;5071563;28;20461;-65
2022/07/28 11:40:50;;;;;;;7.93;6.40;;;31.80;74.20;;;;;;5060789;28;20044;-65
2022/07/28 11:43:24;;;;;;;8.68;6.25;;;32.40;73.60;;;;;;5076667;28;20101;-65
2022/07/28 11:46:04;;;;;;;7.28;6.68;;;33.00;72.50;;;;;;5063683;28;20044;-65
2022/07/28 11:48:41;;;;;;;7.40;6.70;;;33.10;71.90;;;;;;5066255;28;20055;-65
2022/07/28 11:51:10;;;;;;;7.65;6.53;;;33.60;70.80;;;;;;5061062;28;20049;-65
2022/07/28 11:53:46;;;;;;;8.13;6.88;;;34.20;69.40;;;;;;5072512;28;20050;-65
2022/07/28 11:56:24;;;;;;;8.68;7.25;;;34.50;68.60;;;;;;5075651;28;20534;-67
2022/07/28 11:59:10;;;;;;;11.52;6.57;;;34.80;67.20;;;;;;5074196;28;20581;-66
2022/07/28 12:01:49;;;;;;;6.80;6.20;;;35.00;66.00;;;;;;5074091;28;20068;-66
2022/07/28 12:04:18;;;;;;;7.45;6.70;;;34.70;65.40;;;;;;5053279;28;20054;-66
2022/07/28 12:06:51;;;;;;;8.20;7.30;;;34.70;65.90;;;;;;5073387;28;20056;-66
2022/07/28 12:09:19;;;;;;;8.65;6.82;;;35.60;65.00;;;;;;5070865;28;20394;-66
2022/07/28 12:11:54;;;;;;;11.48;6.40;;;35.90;62.90;;;;;;5070481;28;20037;-66
2022/07/28 12:14:22;;;;;;;7.00;6.38;;;36.20;62.10;;;;;;5081311;28;20048;-65
2022/07/28 12:16:50;;;;;;;6.93;5.97;;;36.80;62.10;;;;;;5077846;28;20128;-66
2022/07/28 12:19:20;;;;;;;7.70;6.57;;;36.80;61.00;;;;;;5067503;28;20449;-66
2022/07/28 12:21:48;;;;;;;7.63;6.82;;;37.20;60.20;;;;;;5056360;28;20115;-66
2022/07/28 12:24:29;;;;;;;7.25;6.28;;;37.50;59.20;;;;;;5080325;28;20056;-66
2022/07/28 12:26:59;;;;;;;9.10;6.25;;;37.40;58.40;;;;;;5063071;28;20187;-66
2022/07/28 12:29:30;;;;;;;7.20;6.43;;;37.50;58.50;;;;;;5065515;28;20260;-66
2022/07/28 12:32:04;;;;;;;9.27;7.03;;;37.60;58.00;;;;;;5078881;28;20052;-67
2022/07/28 12:34:34;;;;;;;8.95;6.55;;;38.20;57.20;;;;;;5081367;28;20044;-66
2022/07/28 12:37:04;;;;;;;9.90;6.65;;;38.20;56.60;;;;;;5056890;28;20379;-66
2022/07/28 12:39:38;;;;;;;7.65;6.05;;;38.30;57.10;;;;;;5081201;28;20052;-67
2022/07/28 12:42:08;;;;;;;6.85;6.15;;;38.80;55.60;;;;;;5056224;28;20047;-67
2022/07/28 12:44:47;;;;;;;10.52;6.80;;;38.50;55.30;;;;;;5070195;28;20528;-67
2022/07/28 12:47:23;;;;;;;7.38;6.65;;;38.10;55.60;;;;;;5068305;28;20596;-65
2022/07/28 12:50:12;;;;;;;8.10;6.30;;;37.20;55.70;;;;;;5072922;28;20601;-65
2022/07/28 12:52:42;;;;;;;7.93;6.50;;;37.00;56.20;;;;;;5075542;28;20071;-66
2022/07/28 12:55:21;;;;;;;7.90;6.30;;;38.00;55.50;;;;;;5079917;28;20495;-65
2022/07/28 12:57:50;;;;;;;8.00;6.40;;;38.20;55.00;;;;;;5078389;28;20055;-66
2022/07/28 13:00:26;;;;;;;7.25;6.43;;;37.80;54.70;;;;;;5070015;28;20115;-66
2022/07/28 13:02:56;;;;;;;7.65;6.45;;;37.10;55.50;;;;;;5067875;28;20040;-65
2022/07/28 13:05:31;;;;;;;7.75;6.95;;;36.00;56.40;;;;;;5068107;28;20044;-65
2022/07/28 13:08:04;;;;;;;7.93;7.13;;;35.00;57.50;;;;;;5071150;28;20084;-65